Time;durP1;ratioP1;P1;durP2;ratioP2;P2;SDS_P1;SDS_P2;PMS_P1;PMS_P2;Temp;Humidity;BMP_temperature;BMP_pressure;BME280_temperature;BME280_humidity;BME280_pressure;Samples;Min_cycle;Max_cycle;Signal;HPM_P1;HPM_P2
2023/08/17 00:02:13;;;;;;;2.58;1.05;;;;;;;16.30;100.00;102303.44;4986216;28;20035;-76
2023/08/17 00:04:40;;;;;;;4.13;1.52;;;;;;;16.28;100.00;102294.56;4943983;28;20492;-76
2023/08/17 00:07:07;;;;;;;8.68;2.28;;;;;;;16.25;100.00;102294.53;4986001;28;20039;-76
2023/08/17 00:09:35;;;;;;;4.72;1.42;;;;;;;16.25;100.00;102296.31;4966722;28;20050;-76
2023/08/17 00:12:03;;;;;;;4.13;1.45;;;;;;;16.24;100.00;102291.88;4969919;28;20050;-76
2023/08/17 00:14:32;;;;;;;3.95;1.33;;;;;;;16.23;100.00;102287.47;4966707;28;20054;-76
2023/08/17 00:16:59;;;;;;;4.40;1.38;;;;;;;16.21;100.00;102295.44;4968279;28;20053;-77
2023/08/17 00:19:27;;;;;;;2.63;1.17;;;;;;;16.20;100.00;102292.75;4968484;28;20050;-77
2023/08/17 00:21:55;;;;;;;3.70;1.17;;;;;;;16.20;100.00;102290.09;4932586;28;20046;-77
2023/08/17 00:24:22;;;;;;;3.60;1.65;;;;;;;16.19;100.00;102291.88;4986325;28;20065;-76
2023/08/17 00:26:49;;;;;;;5.50;1.23;;;;;;;16.18;100.00;102293.66;4968219;28;20416;-76
2023/08/17 00:29:17;;;;;;;3.20;1.17;;;;;;;16.17;100.00;102286.56;4969661;28;20562;-76
2023/08/17 00:31:45;;;;;;;5.07;1.20;;;;;;;16.18;100.00;102288.34;4966444;28;20046;-76
2023/08/17 00:34:12;;;;;;;5.25;2.47;;;;;;;16.17;100.00;102281.22;4969769;28;20411;-77
2023/08/17 00:36:40;;;;;;;1.83;1.10;;;;;;;16.17;100.00;102280.34;4928046;28;20496;-77
2023/08/17 00:39:07;;;;;;;2.47;1.30;;;;;;;16.18;100.00;102280.38;4985243;28;20495;-77
2023/08/17 00:41:35;;;;;;;5.47;1.52;;;;;;;16.17;100.00;102273.25;4966938;28;20050;-76
2023/08/17 00:44:02;;;;;;;8.27;1.40;;;;;;;16.17;100.00;102283.00;4953424;28;20502;-76
2023/08/17 00:46:30;;;;;;;5.07;1.67;;;;;;;16.16;100.00;102284.78;4948586;28;20077;-75
2023/08/17 00:48:58;;;;;;;3.70;1.50;;;;;;;16.18;100.00;102279.44;4977517;28;20700;-77
2023/08/17 00:51:27;;;;;;;2.35;1.45;;;;;;;16.16;100.00;102275.91;4951963;28;20046;-77
2023/08/17 00:53:58;;;;;;;5.05;2.30;;;;;;;16.14;100.00;102283.91;4965490;28;20813;-75
2023/08/17 00:56:26;;;;;;;5.00;1.60;;;;;;;16.13;100.00;102281.22;4985943;28;20042;-76
2023/08/17 00:58:55;;;;;;;3.65;1.60;;;;;;;16.12;100.00;102280.34;4967092;28;20046;-76
2023/08/17 01:01:23;;;;;;;4.40;1.40;;;;;;;16.12;100.00;102279.44;4968581;28;20050;-76
2023/08/17 01:03:50;;;;;;;4.50;1.67;;;;;;;16.10;100.00;102282.09;4967469;28;20053;-76
2023/08/17 01:06:18;;;;;;;1.85;1.35;;;;;;;16.11;100.00;102283.88;4969550;28;20043;-76
2023/08/17 01:08:46;;;;;;;5.75;1.52;;;;;;;16.11;100.00;102275.03;4929759;28;20050;-76
2023/08/17 01:11:32;;;;;;;4.60;1.77;;;;;;;16.11;100.00;102280.34;4969472;28;20054;-76
2023/08/17 01:14:15;;;;;;;4.88;1.50;;;;;;;16.11;100.00;102281.22;4968298;28;20091;-76
2023/08/17 01:16:50;;;;;;;5.45;2.08;;;;;;;16.11;100.00;102278.56;4968828;28;20057;-76
2023/08/17 01:19:25;;;;;;;3.15;1.50;;;;;;;16.12;100.00;102285.66;4972902;28;20578;-76
2023/08/17 01:22:05;;;;;;;4.90;1.58;;;;;;;16.12;100.00;102280.34;4970688;28;20050;-76
2023/08/17 01:24:33;;;;;;;2.45;1.23;;;;;;;16.11;100.00;102281.22;4930597;28;20057;-76
2023/08/17 01:27:00;;;;;;;3.58;1.73;;;;;;;16.11;100.00;102272.38;4971704;28;20058;-75
2023/08/17 01:29:28;;;;;;;4.47;1.73;;;;;;;16.09;100.00;102268.81;4970906;28;20077;-75
2023/08/17 01:32:08;;;;;;;3.85;1.30;;;;;;;16.07;100.00;102262.59;4975012;28;20055;-77
2023/08/17 01:34:44;;;;;;;4.18;1.45;;;;;;;16.05;100.00;102267.91;4971903;28;20057;-76
2023/08/17 01:37:18;;;;;;;4.88;1.58;;;;;;;16.01;100.00;102268.78;4972597;28;20061;-76
2023/08/17 01:39:49;;;;;;;5.57;1.55;;;;;;;16.02;100.00;102275.00;4929202;28;20054;-76
2023/08/17 01:42:18;;;;;;;4.80;1.55;;;;;;;16.00;100.00;102269.66;4978512;28;20054;-76
2023/08/17 01:44:46;;;;;;;4.82;2.00;;;;;;;15.98;100.00;102269.66;4969348;28;20061;-76
2023/08/17 01:47:15;;;;;;;4.43;1.50;;;;;;;16.00;100.00;102272.31;4972034;28;20058;-76
2023/08/17 01:49:42;;;;;;;6.38;1.75;;;;;;;15.98;100.00;102261.69;4986529;28;20505;-76
2023/08/17 01:52:10;;;;;;;3.30;1.52;;;;;;;15.96;100.00;102260.78;4987092;28;20057;-76
2023/08/17 01:54:37;;;;;;;5.13;1.63;;;;;;;15.96;100.00;102266.09;4974786;28;20047;-76
2023/08/17 01:57:04;;;;;;;2.28;1.10;;;;;;;15.96;100.00;102271.41;4927892;28;20043;-76
2023/08/17 01:59:31;;;;;;;4.47;1.92;;;;;;;15.95;100.00;102267.00;4968035;28;20054;-76
2023/08/17 02:01:59;;;;;;;4.85;1.67;;;;;;;15.94;100.00;102265.22;4971979;28;20534;-76
2023/08/17 02:04:27;;;;;;;3.03;1.45;;;;;;;15.92;100.00;102255.47;4970119;28;20407;-76
2023/08/17 02:06:54;;;;;;;3.88;1.50;;;;;;;15.90;100.00;102262.56;4984329;28;20066;-76
2023/08/17 02:09:21;;;;;;;3.47;1.30;;;;;;;15.88;100.00;102259.88;4955078;28;20051;-75
2023/08/17 02:11:52;;;;;;;5.57;1.98;;;;;;;15.87;100.00;102257.22;4933495;28;20065;-75
2023/08/17 02:14:19;;;;;;;4.78;1.40;;;;;;;15.87;100.00;102254.56;4985174;28;20046;-75
2023/08/17 02:16:46;;;;;;;3.97;1.63;;;;;;;15.83;100.00;102248.34;4968912;28;20050;-76
2023/08/17 02:19:14;;;;;;;3.88;1.48;;;;;;;15.84;100.00;102251.88;4988608;28;20411;-76
2023/08/17 02:21:42;;;;;;;5.13;1.30;;;;;;;15.82;100.00;102254.50;4968463;28;20081;-76
2023/08/17 02:24:11;;;;;;;5.30;2.03;;;;;;;15.82;100.00;102253.63;4987909;28;20030;-75
2023/08/17 02:26:39;;;;;;;5.00;1.50;;;;;;;15.81;100.00;102252.75;4953793;28;20054;-76
2023/08/17 02:29:07;;;;;;;3.42;1.67;;;;;;;15.82;100.00;102253.63;4988353;28;20058;-76
2023/08/17 02:31:34;;;;;;;6.68;1.75;;;;;;;15.82;100.00;102241.22;4969422;28;20049;-75
2023/08/17 02:34:05;;;;;;;3.45;1.35;;;;;;;15.84;100.00;102251.88;4989986;28;20047;-76
2023/08/17 02:36:32;;;;;;;4.15;1.70;;;;;;;15.84;100.00;102249.22;4986603;28;20050;-76
2023/08/17 02:39:03;;;;;;;3.30;1.37;;;;;;;15.86;100.00;102255.41;4971836;28;20053;-76
2023/08/17 02:41:31;;;;;;;8.48;1.70;;;;;;;15.87;100.00;102263.41;4987005;28;20054;-75
2023/08/17 02:44:00;;;;;;;3.47;1.55;;;;;;;15.88;100.00;102265.19;4945170;28;20030;-76
2023/08/17 02:46:28;;;;;;;4.43;1.67;;;;;;;15.89;100.00;102260.75;4970115;28;20054;-76
2023/08/17 02:48:55;;;;;;;6.00;1.48;;;;;;;15.90;100.00;102263.44;4970218;28;20057;-76
2023/08/17 02:51:23;;;;;;;3.28;1.55;;;;;;;15.91;100.00;102262.53;4970983;28;20547;-76
2023/08/17 02:53:51;;;;;;;4.25;1.25;;;;;;;15.92;100.00;102263.44;5001346;28;20039;-76
2023/08/17 02:56:18;;;;;;;2.08;1.20;;;;;;;15.91;100.00;102254.56;4988521;28;20050;-75
2023/08/17 02:58:47;;;;;;;3.63;1.38;;;;;;;15.92;100.00;102248.38;4956382;28;20042;-76
2023/08/17 03:01:16;;;;;;;3.08;1.73;;;;;;;15.94;100.00;102249.25;4974769;28;20054;-76
2023/08/17 03:03:43;;;;;;;7.90;1.95;;;;;;;15.94;100.00;102243.94;4959572;28;20074;-75
2023/08/17 03:06:11;;;;;;;4.70;1.80;;;;;;;15.93;100.00;102252.78;4971156;28;20049;-75
2023/08/17 03:08:41;;;;;;;5.35;2.08;;;;;;;15.92;100.00;102240.41;4967541;28;20058;-75
2023/08/17 03:11:11;;;;;;;3.33;1.52;;;;;;;15.91;100.00;102243.91;4969606;28;20057;-76
2023/08/17 03:13:38;;;;;;;6.65;2.20;;;;;;;15.89;100.00;102237.72;4925949;28;20085;-77
2023/08/17 03:16:06;;;;;;;5.53;1.73;;;;;;;15.89;100.00;102245.69;4970461;28;20066;-76
2023/08/17 03:18:33;;;;;;;3.03;1.20;;;;;;;15.87;100.00;102239.47;4965401;28;20055;-76
2023/08/17 03:21:01;;;;;;;3.75;1.27;;;;;;;15.87;100.00;102239.47;4966888;28;20054;-76
2023/08/17 03:23:28;;;;;;;1.88;1.33;;;;;;;15.86;100.00;102247.44;4966856;28;20038;-76
2023/08/17 03:25:56;;;;;;;4.90;1.70;;;;;;;15.84;100.00;102241.25;4967099;28;20070;-76
2023/08/17 03:28:25;;;;;;;5.32;1.73;;;;;;;15.83;100.00;102247.47;4970301;28;20050;-77
2023/08/17 03:30:56;;;;;;;4.82;1.48;;;;;;;15.81;100.00;102236.81;4960008;28;20668;-76
2023/08/17 03:33:24;;;;;;;3.55;1.40;;;;;;;15.82;100.00;102240.34;4967325;28;20043;-76
2023/08/17 03:35:52;;;;;;;5.03;1.48;;;;;;;15.79;100.00;102230.59;4964988;28;20046;-76
2023/08/17 03:38:19;;;;;;;2.92;1.20;;;;;;;15.79;100.00;102233.25;4966186;28;20055;-75
2023/08/17 03:40:47;;;;;;;2.13;1.30;;;;;;;15.77;100.00;102224.41;4965037;28;20509;-76
2023/08/17 03:43:15;;;;;;;2.60;1.65;;;;;;;15.77;100.00;102235.03;4967305;28;20496;-76
2023/08/17 03:45:42;;;;;;;4.20;1.40;;;;;;;15.76;100.00;102223.53;4924015;28;20047;-76
2023/08/17 03:48:10;;;;;;;3.88;1.40;;;;;;;15.76;100.00;102228.84;4966740;28;20046;-76
2023/08/17 03:50:37;;;;;;;3.15;1.35;;;;;;;15.76;100.00;102239.47;4948234;28;20077;-76
2023/08/17 03:53:05;;;;;;;1.27;1.17;;;;;;;15.77;100.00;102229.72;4966124;28;20050;-76
2023/08/17 03:55:32;;;;;;;2.75;1.25;;;;;;;15.76;100.00;102233.25;4965740;28;20058;-76
2023/08/17 03:57:59;;;;;;;2.90;1.38;;;;;;;15.75;100.00;102229.69;4949931;28;20049;-75
2023/08/17 04:00:26;;;;;;;2.88;1.30;;;;;;;15.75;100.00;102227.03;4924273;28;20055;-77
2023/08/17 04:02:57;;;;;;;6.68;1.75;;;;;;;15.75;100.00;102226.16;4950718;28;20066;-75
2023/08/17 04:05:25;;;;;;;5.50;1.10;;;;;;;15.71;100.00;102219.91;4965153;28;20045;-76
2023/08/17 04:07:54;;;;;;;4.88;1.75;;;;;;;15.70;100.00;102223.44;4966735;28;20445;-76
2023/08/17 04:10:23;;;;;;;5.13;1.73;;;;;;;15.69;100.00;102234.06;4966916;28;20055;-77
2023/08/17 04:12:50;;;;;;;3.95;1.42;;;;;;;15.67;100.00;102230.50;4980390;28;20046;-77
2023/08/17 04:15:17;;;;;;;3.53;1.27;;;;;;;15.66;100.00;102229.63;4937306;28;20067;-77
2023/08/17 04:17:45;;;;;;;3.72;1.73;;;;;;;15.64;100.00;102234.06;4963749;28;20059;-75
2023/08/17 04:20:13;;;;;;;4.57;1.50;;;;;;;15.64;100.00;102234.06;4967499;28;20047;-75
2023/08/17 04:22:40;;;;;;;3.50;1.50;;;;;;;15.62;100.00;102230.50;4963744;28;20429;-76
2023/08/17 04:25:07;;;;;;;2.22;1.50;;;;;;;15.63;100.00;102234.03;4967874;28;20043;-76
2023/08/17 04:27:35;;;;;;;4.88;1.65;;;;;;;15.62;100.00;102232.28;4963655;28;20051;-76
2023/08/17 04:30:04;;;;;;;9.05;1.80;;;;;;;15.61;100.00;102239.34;4958774;28;20519;-76
2023/08/17 04:32:38;;;;;;;3.92;1.90;;;;;;;15.58;100.00;102234.91;4963587;28;20416;-77
2023/08/17 04:35:06;;;;;;;3.00;1.52;;;;;;;15.57;100.00;102238.44;4950344;28;20051;-76
2023/08/17 04:37:33;;;;;;;3.72;1.60;;;;;;;15.58;100.00;102244.66;4979818;28;20058;-75
2023/08/17 04:40:00;;;;;;;5.95;1.75;;;;;;;15.55;100.00;102245.50;4982699;28;20046;-76
2023/08/17 04:42:28;;;;;;;3.60;2.03;;;;;;;15.56;100.00;102249.09;4965885;28;20436;-76
2023/08/17 04:44:55;;;;;;;3.53;2.33;;;;;;;15.56;100.00;102238.47;4950239;28;20050;-76
2023/08/17 04:47:22;;;;;;;4.53;2.10;;;;;;;15.55;100.00;102226.91;4927629;28;20050;-76
2023/08/17 04:49:51;;;;;;;4.32;1.95;;;;;;;15.54;100.00;102237.56;4950208;28;20544;-76
2023/08/17 04:52:18;;;;;;;5.60;2.10;;;;;;;15.55;100.00;102223.38;4970802;28;20050;-76
2023/08/17 04:54:46;;;;;;;7.15;1.73;;;;;;;15.54;100.00;102225.16;4968153;28;20045;-76
2023/08/17 04:57:13;;;;;;;3.85;1.80;;;;;;;15.55;100.00;102229.56;4970620;28;20061;-75
2023/08/17 04:59:40;;;;;;;2.88;1.88;;;;;;;15.55;100.00;102224.25;4967203;28;20038;-76
2023/08/17 05:02:09;;;;;;;5.55;1.73;;;;;;;15.55;100.00;102220.72;4932463;28;20055;-76
2023/08/17 05:04:39;;;;;;;5.15;1.60;;;;;;;15.53;100.00;102220.72;4935542;28;20062;-76
2023/08/17 05:07:07;;;;;;;3.25;1.50;;;;;;;15.53;100.00;102226.03;4953971;28;20062;-76
2023/08/17 05:09:35;;;;;;;5.45;2.10;;;;;;;15.53;100.00;102231.34;4966834;28;20057;-77
2023/08/17 05:12:03;;;;;;;7.18;2.22;;;;;;;15.53;100.00;102225.16;4971008;28;20058;-75
2023/08/17 05:14:30;;;;;;;5.15;1.77;;;;;;;15.54;100.00;102227.81;4952479;28;20058;-75
2023/08/17 05:16:58;;;;;;;4.95;1.80;;;;;;;15.55;100.00;102237.53;4929825;28;20054;-75
2023/08/17 05:19:25;;;;;;;4.50;1.92;;;;;;;15.56;100.00;102230.47;4985013;28;20050;-75
2023/08/17 05:21:54;;;;;;;4.85;1.90;;;;;;;15.57;100.00;102230.47;4953922;28;20047;-75
2023/08/17 05:24:22;;;;;;;5.65;1.92;;;;;;;15.60;100.00;102240.25;5001426;28;20053;-75
2023/08/17 05:26:50;;;;;;;3.63;1.40;;;;;;;15.60;100.00;102241.13;4967767;28;20062;-75
2023/08/17 05:29:17;;;;;;;6.00;1.70;;;;;;;15.67;100.00;102241.13;5001980;28;20043;-76
2023/08/17 05:31:45;;;;;;;3.45;1.65;;;;;;;15.72;100.00;102244.72;4927830;28;20049;-75
2023/08/17 05:34:14;;;;;;;5.63;1.63;;;;;;;15.78;100.00;102242.09;4986451;28;20054;-76
2023/08/17 05:36:42;;;;;;;5.13;1.77;;;;;;;15.85;100.00;102241.25;4979298;28;20078;-76
2023/08/17 05:39:10;;;;;;;3.72;1.60;;;;;;;15.93;100.00;102241.28;4964955;28;20058;-75
2023/08/17 05:41:39;;;;;;;6.22;1.63;;;;;;;16.01;100.00;102241.28;4991048;28;20047;-76
2023/08/17 05:44:09;;;;;;;4.53;1.63;;;;;;;16.09;100.00;102239.56;5002594;28;20051;-77
2023/08/17 05:46:37;;;;;;;4.95;1.70;;;;;;;16.15;100.00;102236.91;4962884;28;20447;-75
2023/08/17 05:49:04;;;;;;;3.70;2.00;;;;;;;16.20;100.00;102232.50;4971476;28;20522;-75
2023/08/17 05:51:31;;;;;;;4.53;2.20;;;;;;;16.27;100.00;102236.91;4968113;28;20058;-76
2023/08/17 05:53:59;;;;;;;4.88;1.92;;;;;;;16.33;100.00;102239.63;4968801;28;20403;-75
2023/08/17 05:56:27;;;;;;;4.10;1.80;;;;;;;16.40;100.00;102234.28;4968069;28;20047;-75
2023/08/17 05:58:54;;;;;;;5.07;1.73;;;;;;;16.48;100.00;102232.50;4952501;28;20042;-76
2023/08/17 06:01:22;;;;;;;3.30;1.63;;;;;;;16.54;100.00;102236.09;4955607;28;20054;-76
2023/08/17 06:03:49;;;;;;;5.20;1.77;;;;;;;16.58;100.00;102236.97;4927513;28;20058;-77
2023/08/17 06:06:17;;;;;;;4.07;1.45;;;;;;;16.78;100.00;102234.28;4985076;28;20050;-76
2023/08/17 06:08:44;;;;;;;1.65;1.42;;;;;;;17.11;100.00;102233.41;4967592;28;20062;-76
2023/08/17 06:11:11;;;;;;;4.30;1.20;;;;;;;17.58;100.00;102227.94;4969663;28;20054;-76
2023/08/17 06:13:39;;;;;;;4.95;1.25;;;;;;;17.91;100.00;102238.47;4965149;28;20476;-76
2023/08/17 06:16:06;;;;;;;2.42;1.48;;;;;;;17.99;100.00;102241.09;4937281;28;20054;-76
2023/08/17 06:18:34;;;;;;;3.08;1.17;;;;;;;17.99;100.00;102234.88;4951855;28;20038;-75
2023/08/17 06:21:02;;;;;;;5.65;1.30;;;;;;;18.01;100.00;102238.44;4979220;28;20047;-75
2023/08/17 06:23:29;;;;;;;3.38;1.40;;;;;;;18.02;100.00;102240.22;4968441;28;20061;-76
2023/08/17 06:25:58;;;;;;;3.88;1.40;;;;;;;18.02;100.00;102246.44;4984720;28;20079;-77
2023/08/17 06:28:27;;;;;;;8.02;1.88;;;;;;;18.01;100.00;102249.97;4983957;28;20055;-75
2023/08/17 06:30:55;;;;;;;3.63;1.23;;;;;;;17.99;100.00;102237.56;4983235;28;20047;-76
2023/08/17 06:33:23;;;;;;;8.43;1.75;;;;;;;17.93;100.00;102250.00;4974375;28;20089;-75
2023/08/17 06:35:50;;;;;;;3.35;1.05;;;;;;;17.84;100.00;102251.81;4956325;28;20050;-76
2023/08/17 06:38:17;;;;;;;6.65;1.42;;;;;;;17.73;100.00;102255.44;4970165;28;20527;-76
2023/08/17 06:40:45;;;;;;;4.72;1.10;;;;;;;17.63;100.00;102264.34;4965237;28;20053;-76
2023/08/17 06:43:13;;;;;;;4.32;1.13;;;;;;;17.53;100.00;102262.59;4970291;28;20047;-76
2023/08/17 06:45:43;;;;;;;3.45;1.35;;;;;;;17.41;100.00;102274.19;4965608;28;20483;-75
2023/08/17 06:48:10;;;;;;;1.85;0.82;;;;;;;17.38;100.00;102276.84;4967772;28;20062;-76
2023/08/17 06:50:38;;;;;;;3.42;1.10;;;;;;;17.35;100.00;102279.53;4940085;28;20050;-75
2023/08/17 06:53:05;;;;;;;1.75;1.20;;;;;;;17.31;100.00;102278.63;4968778;28;20051;-76
2023/08/17 06:55:32;;;;;;;3.53;0.98;;;;;;;17.29;100.00;102291.06;4968065;28;20531;-78
2023/08/17 06:58:00;;;;;;;1.73;0.98;;;;;;;17.25;100.00;102278.66;4999808;28;20480;-76
2023/08/17 07:00:27;;;;;;;4.45;1.00;;;;;;;17.19;100.00;102275.13;4998841;28;20054;-76
2023/08/17 07:02:54;;;;;;;2.53;1.00;;;;;;;17.13;100.00;102284.91;4999092;28;20247;-76
2023/08/17 07:05:27;;;;;;;3.03;1.25;;;;;;;17.10;100.00;102290.22;4929346;28;20050;-76
2023/08/17 07:07:55;;;;;;;2.25;0.88;;;;;;;17.05;100.00;102288.44;4968042;28;20046;-76
2023/08/17 07:10:22;;;;;;;3.40;1.10;;;;;;;17.05;100.00;102289.34;4967001;28;20058;-76
2023/08/17 07:12:49;;;;;;;2.75;1.17;;;;;;;17.06;100.00;102288.44;4947120;28;20062;-76
2023/08/17 07:15:17;;;;;;;1.05;0.80;;;;;;;17.06;100.00;102280.47;4983370;28;20050;-76
2023/08/17 07:17:44;;;;;;;4.22;1.20;;;;;;;17.06;100.00;102284.91;4964792;28;20054;-77
2023/08/17 07:20:12;;;;;;;2.55;1.10;;;;;;;17.09;100.00;102287.56;4931989;28;20047;-76
2023/08/17 07:22:43;;;;;;;1.98;0.77;;;;;;;17.11;100.00;102284.00;4980494;28;20058;-76
2023/08/17 07:25:11;;;;;;;2.70;1.00;;;;;;;17.11;100.00;102284.00;4983591;28;20511;-75
2023/08/17 07:27:38;;;;;;;2.88;0.80;;;;;;;17.14;100.00;102281.34;4964018;28;20050;-77
2023/08/17 07:30:06;;;;;;;2.50;0.85;;;;;;;17.18;100.00;102284.00;4968793;28;20050;-75
2023/08/17 07:32:34;;;;;;;2.65;1.08;;;;;;;17.19;100.00;102273.34;4966097;28;20059;-76
2023/08/17 07:35:02;;;;;;;0.98;0.73;;;;;;;17.23;100.00;102276.91;4930202;28;20043;-76
2023/08/17 07:37:33;;;;;;;2.78;1.10;;;;;;;17.27;100.00;102281.31;4966359;28;20047;-76
2023/08/17 07:40:03;;;;;;;1.20;0.77;;;;;;;17.31;100.00;102283.09;4967599;28;20062;-75
2023/08/17 07:42:31;;;;;;;4.88;1.38;;;;;;;17.32;100.00;102284.88;4965237;28;20055;-75
2023/08/17 07:45:05;;;;;;;4.07;1.25;;;;;;;17.32;100.00;102283.09;4982567;28;20058;-76
2023/08/17 07:47:34;;;;;;;2.50;0.80;;;;;;;17.32;100.00;102280.41;4965451;28;20051;-75
2023/08/17 07:50:04;;;;;;;3.28;0.88;;;;;;;17.31;100.00;102283.09;4966104;28;20496;-75
2023/08/17 07:52:31;;;;;;;1.38;0.90;;;;;;;17.29;100.00;102279.53;4927370;28;20061;-75
2023/08/17 07:54:58;;;;;;;3.83;1.30;;;;;;;17.23;100.00;102280.44;4950238;28;20131;-76
2023/08/17 07:57:26;;;;;;;0.80;0.80;;;;;;;17.23;100.00;102274.22;4981923;28;20051;-76
2023/08/17 07:59:55;;;;;;;2.50;0.90;;;;;;;17.25;100.00;102275.13;4997218;28;20046;-76
2023/08/17 08:02:22;;;;;;;5.18;1.38;;;;;;;17.26;100.00;102274.25;4999693;28;20050;-76
2023/08/17 08:04:50;;;;;;;3.47;1.10;;;;;;;17.23;100.00;102275.09;4981555;28;20039;-76
2023/08/17 08:07:17;;;;;;;2.42;0.80;;;;;;;17.18;100.00;102268.91;4932940;28;20042;-76
2023/08/17 08:09:44;;;;;;;2.83;0.85;;;;;;;17.15;100.00;102277.78;4940700;28;20047;-76
2023/08/17 08:12:12;;;;;;;7.03;1.38;;;;;;;17.13;100.00;102276.03;4966598;28;20046;-76
2023/08/17 08:14:39;;;;;;;3.45;1.10;;;;;;;17.13;100.00;102281.34;4979478;28;20684;-76
2023/08/17 08:17:06;;;;;;;4.53;1.10;;;;;;;17.09;100.00;102288.47;4966404;28;20062;-76
2023/08/17 08:19:34;;;;;;;4.90;2.15;;;;;;;17.06;100.00;102283.13;4964866;28;20523;-76
2023/08/17 08:22:02;;;;;;;5.80;1.20;;;;;;;17.02;100.00;102283.13;4926669;28;20412;-76
2023/08/17 08:24:33;;;;;;;3.55;0.80;;;;;;;16.94;100.00;102276.03;4997946;28;20050;-76
2023/08/17 08:27:04;;;;;;;2.30;1.05;;;;;;;16.91;100.00;102278.69;5001589;28;20689;-76
2023/08/17 08:29:32;;;;;;;1.85;0.95;;;;;;;16.89;100.00;102277.81;4967619;28;20061;-75
2023/08/17 08:32:02;;;;;;;1.48;1.38;;;;;;;16.87;100.00;102284.03;4971864;28;20051;-75
2023/08/17 08:34:29;;;;;;;2.77;1.27;;;;;;;16.80;100.00;102287.53;4985002;28;20062;-78
2023/08/17 08:36:57;;;;;;;1.83;0.93;;;;;;;16.75;100.00;102285.78;4947240;28;20047;-76
2023/08/17 08:39:27;;;;;;;7.55;0.90;;;;;;;16.73;100.00;102287.53;4997334;28;20420;-76
2023/08/17 08:41:55;;;;;;;2.42;1.08;;;;;;;16.72;100.00;102277.78;4969214;28;20043;-76
2023/08/17 08:44:23;;;;;;;2.75;1.00;;;;;;;16.73;100.00;102276.91;4969370;28;20055;-75
2023/08/17 08:46:55;;;;;;;2.45;1.13;;;;;;;16.73;100.00;102268.91;4970033;28;20039;-76
2023/08/17 08:49:24;;;;;;;3.25;0.80;;;;;;;16.74;100.00;102265.34;4986429;28;20051;-76
2023/08/17 08:51:59;;;;;;;3.17;1.05;;;;;;;16.79;100.00;102267.16;4932770;28;20065;-77
2023/08/17 08:54:29;;;;;;;3.45;1.23;;;;;;;16.80;100.00;102268.91;4996562;28;20050;-76
2023/08/17 08:57:04;;;;;;;2.83;1.05;;;;;;;16.81;100.00;102266.25;5001456;28;20058;-76
2023/08/17 08:59:34;;;;;;;2.60;0.88;;;;;;;16.90;100.00;102276.03;4970653;28;20428;-76
2023/08/17 09:02:03;;;;;;;8.30;1.30;;;;;;;16.92;100.00;102284.94;4971995;28;20058;-76
2023/08/17 09:04:30;;;;;;;3.03;0.90;;;;;;;16.94;100.00;102284.03;4984694;28;20078;-76
2023/08/17 09:06:58;;;;;;;1.95;0.82;;;;;;;17.00;100.00;102276.94;5002055;28;20058;-77
2023/08/17 09:09:25;;;;;;;2.00;1.33;;;;;;;17.06;100.00;102283.13;4935469;28;20058;-76
2023/08/17 09:11:57;;;;;;;6.07;1.17;;;;;;;17.14;100.00;102261.81;4969535;28;20139;-77
2023/08/17 09:14:24;;;;;;;3.45;1.05;;;;;;;17.30;100.00;102260.91;4965978;28;20059;-75
2023/08/17 09:16:52;;;;;;;1.63;0.88;;;;;;;17.49;100.00;102259.06;4953589;28;20038;-77
2023/08/17 09:19:20;;;;;;;3.17;1.10;;;;;;;17.62;100.00;102267.91;4969787;28;20076;-77
2023/08/17 09:21:47;;;;;;;2.53;1.13;;;;;;;17.74;100.00;102256.31;4964729;28;20047;-76
2023/08/17 09:24:17;;;;;;;6.60;1.98;;;;;;;17.84;100.00;102252.72;4963440;28;20058;-76
2023/08/17 09:26:45;;;;;;;3.92;1.30;;;;;;;17.93;100.00;102251.81;4982917;28;20139;-76
2023/08/17 09:29:18;;;;;;;3.10;1.17;;;;;;;18.08;100.00;102251.72;4986155;28;20058;-76
2023/08/17 09:31:46;;;;;;;2.13;1.02;;;;;;;18.25;100.00;102253.41;4998920;28;20065;-75
2023/08/17 09:34:18;;;;;;;3.17;1.10;;;;;;;18.36;100.00;102253.34;5003569;28;20034;-76
2023/08/17 09:36:47;;;;;;;2.15;0.80;;;;;;;18.43;100.00;102249.72;4966523;28;20043;-76
2023/08/17 09:39:20;;;;;;;3.40;1.10;;;;;;;18.53;100.00;102248.78;4969990;28;20111;-76
2023/08/17 09:41:48;;;;;;;2.38;1.02;;;;;;;18.61;100.00;102244.25;4954945;28;20687;-77
2023/08/17 09:44:16;;;;;;;2.50;1.00;;;;;;;18.57;100.00;102236.28;5001534;28;20066;-76
2023/08/17 09:46:44;;;;;;;2.35;1.08;;;;;;;18.63;100.00;102230.88;4982762;28;20066;-76
2023/08/17 09:49:11;;;;;;;3.38;1.05;;;;;;;18.62;100.00;102230.00;4970299;28;20708;-77
2023/08/17 09:51:43;;;;;;;1.38;0.90;;;;;;;18.53;100.00;102229.22;4966635;28;20051;-77
2023/08/17 09:54:26;;;;;;;2.65;1.02;;;;;;;18.39;100.00;102229.28;4970300;28;20051;-76
2023/08/17 09:56:54;;;;;;;1.98;0.90;;;;;;;18.32;100.00;102236.47;4951412;28;20466;-76
2023/08/17 09:59:21;;;;;;;2.40;0.95;;;;;;;18.31;100.00;102222.22;4969433;28;20051;-76
2023/08/17 10:01:50;;;;;;;3.17;1.23;;;;;;;18.38;100.00;102220.41;4967058;28;20058;-77
2023/08/17 10:04:23;;;;;;;1.45;1.17;;;;;;;18.47;100.00;102211.47;4968633;28;20134;-77
2023/08/17 10:07:01;;;;;;;4.05;1.27;;;;;;;18.58;100.00;102214.91;4967942;28;20038;-77
2023/08/17 10:09:33;;;;;;;3.40;1.02;;;;;;;18.62;100.00;102205.97;4930977;28;20054;-76
2023/08/17 10:12:09;;;;;;;5.35;1.45;;;;;;;18.63;100.00;102198.84;4977742;28;20046;-77
2023/08/17 10:14:46;;;;;;;2.15;1.25;;;;;;;18.70;100.00;102208.59;4979381;28;20054;-76
2023/08/17 10:17:19;;;;;;;3.90;1.30;;;;;;;18.74;100.00;102196.97;4990113;28;20043;-77
2023/08/17 10:19:52;;;;;;;1.52;0.90;;;;;;;18.73;100.00;102202.31;4969645;28;20058;-77
2023/08/17 10:22:26;;;;;;;4.68;1.23;;;;;;;18.75;100.00;102206.78;4970969;28;20050;-77
2023/08/17 10:24:55;;;;;;;2.72;1.30;;;;;;;18.74;100.00;102198.75;4987471;28;20062;-77
2023/08/17 10:27:23;;;;;;;2.78;1.17;;;;;;;18.72;100.00;102192.56;4965748;28;20030;-76
2023/08/17 10:29:51;;;;;;;1.85;1.50;;;;;;;18.68;100.00;102197.91;4970880;28;20050;-76
2023/08/17 10:32:23;;;;;;;4.57;1.00;;;;;;;18.77;100.00;102194.28;4972189;28;20050;-76
2023/08/17 10:34:52;;;;;;;2.70;1.10;;;;;;;18.85;100.00;102202.25;4970120;28;20065;-75
2023/08/17 10:37:21;;;;;;;4.22;1.20;;;;;;;18.85;100.00;102196.91;4971264;28;20053;-76
2023/08/17 10:39:49;;;;;;;3.83;1.20;;;;;;;18.89;100.00;102195.97;4969819;28;20046;-76
2023/08/17 10:42:31;;;;;;;1.83;1.20;;;;;;;18.92;100.00;102195.03;4942633;28;20066;-75
2023/08/17 10:45:01;;;;;;;4.15;1.17;;;;;;;19.04;100.00;102192.25;4983071;28;20046;-76
2023/08/17 10:47:32;;;;;;;3.43;1.10;;;;;;;19.18;100.00;102194.78;4969777;28;20047;-77
2023/08/17 10:50:22;;;;;;;1.75;0.98;;;;;;;19.43;100.00;102195.34;4972764;28;20305;-75
2023/08/17 10:52:53;;;;;;;5.05;1.13;;;;;;;19.68;100.00;102201.31;4986861;28;20050;-77
2023/08/17 10:55:40;;;;;;;2.50;1.30;;;;;;;19.80;100.00;102200.28;4988336;28;20050;-76
2023/08/17 10:58:08;;;;;;;1.45;1.10;;;;;;;19.89;100.00;102201.94;4932391;28;20065;-76
2023/08/17 11:00:44;;;;;;;3.67;1.23;;;;;;;19.97;100.00;102194.69;4968335;28;20166;-76
2023/08/17 11:03:20;;;;;;;5.90;1.27;;;;;;;20.15;100.00;102194.41;4972442;28;20050;-76
2023/08/17 11:05:51;;;;;;;6.72;1.30;;;;;;;20.27;100.00;102200.50;4969376;28;21028;-76
2023/08/17 11:08:32;;;;;;;3.83;1.10;;;;;;;20.28;100.00;102183.50;4972164;28;20050;-75
2023/08/17 11:11:04;;;;;;;4.80;1.20;;;;;;;20.37;100.00;102191.38;4967668;28;20489;-77
2023/08/17 11:13:34;;;;;;;6.10;1.38;;;;;;;20.46;100.00;102185.88;4960065;28;20424;-77
2023/08/17 11:16:03;;;;;;;2.97;1.20;;;;;;;20.57;100.00;102193.75;4983311;28;20042;-77
2023/08/17 11:18:33;;;;;;;4.60;1.13;;;;;;;20.53;100.00;102178.63;4970903;28;20510;-77
2023/08/17 11:21:03;;;;;;;1.90;1.10;;;;;;;20.59;100.00;102178.53;4971240;28;20050;-75
2023/08/17 11:23:32;;;;;;;2.45;1.13;;;;;;;20.61;100.00;102174.94;4978694;28;20042;-76
2023/08/17 11:26:00;;;;;;;1.85;1.13;;;;;;;20.51;100.00;102173.31;4970778;28;20072;-75